createdAt,value
2022-12-11T00:00:05.518Z,2.40
2022-12-11T00:02:38.194Z,2.46
2022-12-11T00:05:11.156Z,2.46
2022-12-11T00:07:45.198Z,2.42
2022-12-11T00:10:17.816Z,2.38
2022-12-11T00:12:50.349Z,2.43
2022-12-11T00:15:22.974Z,2.39
2022-12-11T00:17:55.391Z,2.44
2022-12-11T00:20:27.853Z,2.42
2022-12-11T00:23:01.777Z,2.41
2022-12-11T00:25:34.497Z,2.34
2022-12-11T00:28:06.882Z,2.42
2022-12-11T00:30:40.919Z,2.42
2022-12-11T00:33:14.639Z,2.41
2022-12-11T00:35:48.078Z,2.42
2022-12-11T00:38:22.267Z,2.43
2022-12-11T00:40:58.696Z,2.42
2022-12-11T00:43:31.063Z,2.39
2022-12-11T00:46:04.215Z,2.41
2022-12-11T00:48:36.728Z,2.39
2022-12-11T00:51:09.650Z,2.39
2022-12-11T00:53:44.225Z,2.39
2022-12-11T00:56:20.272Z,2.41
2022-12-11T00:58:52.860Z,2.34
2022-12-11T01:01:25.985Z,2.36
2022-12-11T01:03:58.568Z,2.34
2022-12-11T01:06:31.200Z,2.30
2022-12-11T01:09:23.878Z,2.25
2022-12-11T01:11:56.307Z,2.34
2022-12-11T01:14:29.045Z,2.32
2022-12-11T01:17:01.715Z,2.34
2022-12-11T01:19:34.192Z,2.10
2022-12-11T01:22:06.609Z,2.35
2022-12-11T01:24:40.406Z,2.36
2022-12-11T01:27:12.988Z,2.37
2022-12-11T01:29:45.440Z,2.32
2022-12-11T01:32:17.951Z,2.39
2022-12-11T01:34:50.467Z,2.39
2022-12-11T01:37:23.151Z,2.39
2022-12-11T01:39:56.961Z,2.28
2022-12-11T01:42:29.824Z,2.37
2022-12-11T01:45:28.541Z,2.35
2022-12-11T01:48:05.877Z,2.36
2022-12-11T01:50:43.583Z,2.30
2022-12-11T01:53:21.356Z,2.23
2022-12-11T01:55:57.348Z,2.32
2022-12-11T01:58:34.117Z,2.29
2022-12-11T02:01:06.642Z,2.34
2022-12-11T02:03:39.170Z,2.34
2022-12-11T02:06:33.752Z,2.34
2022-12-11T02:09:10.775Z,2.35
2022-12-11T02:11:57.252Z,2.34
2022-12-11T02:14:36.828Z,2.38
2022-12-11T02:17:13.623Z,2.39
2022-12-11T02:19:58.233Z,2.40
2022-12-11T02:22:50.940Z,2.36
2022-12-11T02:25:32.844Z,2.37
2022-12-11T02:28:18.943Z,2.42
2022-12-11T02:30:55.595Z,2.43
2022-12-11T02:33:37.343Z,2.44
2022-12-11T02:36:10.786Z,2.44
2022-12-11T02:38:50.727Z,2.41
2022-12-11T02:41:25.343Z,2.41
2022-12-11T02:44:01.632Z,2.39
2022-12-11T02:46:36.940Z,2.42
2022-12-11T02:49:11.191Z,2.44
2022-12-11T02:51:44.653Z,2.43
2022-12-11T02:54:21.022Z,2.36
2022-12-11T02:57:01.953Z,2.35
2022-12-11T02:59:39.059Z,2.40
2022-12-11T03:02:13.054Z,2.33
2022-12-11T03:04:47.689Z,2.41
2022-12-11T03:07:23.828Z,2.40
2022-12-11T03:09:56.229Z,2.23
2022-12-11T03:12:31.761Z,2.42
2022-12-11T03:15:08.201Z,2.42
2022-12-11T03:17:49.724Z,2.39
2022-12-11T03:20:34.145Z,2.41
2022-12-11T03:23:16.690Z,2.42
2022-12-11T03:25:54.325Z,2.38
2022-12-11T03:28:31.239Z,2.38
2022-12-11T03:31:10.066Z,2.42
2022-12-11T03:33:46.878Z,2.42
2022-12-11T03:36:25.815Z,2.40
2022-12-11T03:39:02.144Z,2.36
2022-12-11T03:41:37.553Z,2.39
2022-12-11T03:44:11.556Z,2.39
2022-12-11T03:46:47.917Z,2.30
2022-12-11T03:49:28.065Z,2.38
2022-12-11T03:52:02.847Z,2.26
2022-12-11T03:54:35.992Z,2.31
2022-12-11T03:57:10.476Z,2.32
2022-12-11T03:59:43.116Z,2.33
2022-12-11T04:02:17.035Z,2.34
2022-12-11T04:04:49.718Z,2.33
2022-12-11T04:07:22.226Z,2.30
2022-12-11T04:09:55.004Z,2.30
2022-12-11T04:12:27.402Z,2.34
2022-12-11T04:15:02.591Z,2.34
2022-12-11T04:17:57.869Z,2.24
2022-12-11T04:20:49.044Z,2.33
2022-12-11T04:23:40.453Z,2.37
2022-12-11T04:26:16.224Z,2.36
2022-12-11T04:28:49.906Z,2.33
2022-12-11T04:31:23.365Z,2.40
2022-12-11T04:33:57.326Z,2.40
2022-12-11T04:36:30.025Z,2.41
2022-12-11T04:39:02.410Z,2.39
2022-12-11T04:41:35.391Z,2.36
2022-12-11T04:44:08.189Z,2.25
2022-12-11T04:46:43.448Z,2.37
2022-12-11T04:49:17.301Z,2.36
2022-12-11T04:51:49.874Z,2.33
2022-12-11T04:54:22.496Z,2.34
2022-12-11T04:56:55.174Z,2.36
2022-12-11T04:59:27.880Z,2.35
2022-12-11T05:02:00.373Z,2.34
2022-12-11T05:04:35.213Z,2.36
2022-12-11T05:07:09.460Z,2.28
2022-12-11T05:09:41.953Z,2.39
2022-12-11T05:12:14.345Z,2.39
2022-12-11T05:14:46.694Z,2.39
2022-12-11T05:17:19.583Z,2.38
2022-12-11T05:19:56.024Z,2.41
2022-12-11T05:22:31.038Z,2.38
2022-12-11T05:25:04.077Z,2.39
2022-12-11T05:27:37.429Z,2.42
2022-12-11T05:30:15.759Z,2.32
2022-12-11T05:32:48.412Z,2.40
2022-12-11T05:35:22.237Z,2.33
2022-12-11T05:37:54.975Z,2.40
2022-12-11T05:40:27.563Z,2.38
2022-12-11T05:42:59.999Z,2.41
2022-12-11T05:45:32.505Z,2.37
2022-12-11T05:48:05.357Z,2.38
2022-12-11T05:50:39.130Z,2.40
2022-12-11T05:53:13.028Z,2.41
2022-12-11T05:55:45.492Z,2.43
2022-12-11T05:58:18.269Z,2.43
2022-12-11T06:00:50.718Z,2.41
2022-12-11T06:03:23.139Z,2.39
2022-12-11T06:05:56.962Z,2.38
2022-12-11T06:08:29.699Z,2.32
2022-12-11T06:11:02.680Z,2.33
2022-12-11T06:13:35.682Z,2.35
2022-12-11T06:16:10.229Z,2.35
2022-12-11T06:18:44.981Z,2.38
2022-12-11T06:21:20.920Z,2.38
2022-12-11T06:23:56.725Z,2.32
2022-12-11T06:26:30.195Z,2.41
2022-12-11T06:29:05.267Z,2.42
2022-12-11T06:31:41.402Z,2.44
2022-12-11T06:34:14.371Z,2.38
2022-12-11T06:36:48.310Z,2.48
2022-12-11T06:39:20.943Z,2.48
2022-12-11T06:41:53.265Z,2.51
2022-12-11T06:44:25.856Z,2.51
2022-12-11T06:46:58.285Z,2.54
2022-12-11T06:49:33.605Z,2.58
2022-12-11T06:52:11.561Z,2.59
2022-12-11T06:54:47.516Z,2.62
2022-12-11T06:57:20.401Z,2.50
2022-12-11T06:59:53.132Z,2.65
2022-12-11T07:02:27.911Z,2.67
2022-12-11T07:05:00.462Z,2.64
2022-12-11T07:07:35.033Z,2.70
2022-12-11T07:10:15.750Z,2.67
2022-12-11T07:12:52.899Z,2.71
2022-12-11T07:15:25.298Z,2.68
2022-12-11T07:17:57.798Z,2.62
2022-12-11T07:20:30.447Z,2.72
2022-12-11T07:23:04.295Z,2.74
2022-12-11T07:25:37.367Z,2.55
2022-12-11T07:28:13.657Z,2.76
2022-12-11T07:30:49.575Z,2.78
2022-12-11T07:33:22.145Z,2.80
2022-12-11T07:35:54.591Z,2.73
2022-12-11T07:38:28.337Z,2.76
2022-12-11T07:41:01.881Z,2.78
2022-12-11T07:43:35.450Z,2.83
2022-12-11T07:46:10.892Z,2.78
2022-12-11T07:48:45.008Z,2.84
2022-12-11T07:51:19.875Z,2.82
2022-12-11T07:53:55.771Z,2.79
2022-12-11T07:56:29.639Z,2.74
2022-12-11T07:59:05.752Z,2.78
2022-12-11T08:01:39.840Z,2.85
2022-12-11T08:04:15.915Z,2.87
2022-12-11T08:06:48.432Z,2.87
2022-12-11T08:09:22.831Z,2.85
2022-12-11T08:14:28.900Z,2.89
2022-12-11T08:17:02.627Z,2.90
2022-12-11T08:19:35.177Z,2.56
2022-12-11T08:22:07.835Z,2.87
2022-12-11T08:24:41.759Z,2.89
2022-12-11T08:27:14.207Z,2.90
2022-12-11T08:29:47.626Z,2.87
2022-12-11T08:32:20.366Z,2.62
2022-12-11T08:34:52.968Z,2.55
2022-12-11T08:37:25.612Z,2.87
2022-12-11T08:39:59.512Z,2.65
2022-12-11T08:42:32.236Z,2.82
2022-12-11T08:45:06.057Z,2.93
2022-12-11T08:47:38.826Z,2.80
2022-12-11T08:50:11.486Z,2.91
2022-12-11T08:52:44.316Z,2.83
2022-12-11T08:55:18.308Z,2.75
2022-12-11T08:57:54.340Z,2.68
2022-12-11T09:00:29.621Z,2.92
2022-12-11T09:03:02.903Z,2.91
2022-12-11T09:05:35.918Z,2.92
2022-12-11T09:08:08.480Z,2.84
2022-12-11T09:10:42.398Z,2.52
2022-12-11T09:13:15.136Z,2.75
2022-12-11T09:15:47.696Z,2.93
2022-12-11T09:18:20.261Z,2.94
2022-12-11T09:20:59.589Z,2.92
2022-12-11T09:23:32.538Z,2.92
2022-12-11T09:26:07.853Z,2.82
2022-12-11T09:28:45.767Z,2.93
2022-12-11T09:31:23.558Z,2.71
2022-12-11T09:33:58.033Z,2.81
2022-12-11T09:36:30.864Z,2.83
2022-12-11T09:39:05.164Z,2.85
2022-12-11T09:41:46.983Z,2.88
2022-12-11T09:44:30.310Z,2.99
2022-12-11T09:47:02.896Z,2.80
2022-12-11T09:49:39.567Z,2.48
2022-12-11T09:52:17.176Z,2.95
2022-12-11T09:54:52.906Z,3.00
2022-12-11T09:57:42.254Z,3.01
2022-12-11T10:00:20.807Z,2.94
2022-12-11T10:03:23.854Z,2.98
2022-12-11T10:06:05.051Z,2.98
2022-12-11T10:08:44.235Z,2.91
2022-12-11T10:11:33.245Z,2.97
2022-12-11T10:14:18.548Z,2.98
2022-12-11T10:16:54.506Z,2.64
2022-12-11T10:19:30.144Z,2.80
2022-12-11T10:22:03.769Z,2.94
2022-12-11T10:25:10.187Z,2.68
2022-12-11T10:27:39.137Z,2.91
2022-12-11T10:30:18.326Z,2.93
2022-12-11T10:32:53.942Z,2.92
2022-12-11T10:35:32.374Z,2.92
2022-12-11T10:38:17.071Z,2.92
2022-12-11T10:40:52.926Z,2.67
2022-12-11T10:43:36.728Z,2.62
2022-12-11T10:46:20.624Z,2.84
2022-12-11T10:48:54.905Z,2.93
2022-12-11T10:51:35.926Z,2.87
2022-12-11T10:54:27.376Z,2.79
2022-12-11T10:57:02.298Z,2.84
2022-12-11T10:59:45.781Z,2.83
2022-12-11T11:02:24.895Z,2.93
2022-12-11T11:04:59.648Z,2.89
2022-12-11T11:07:33.281Z,2.68
2022-12-11T11:10:14.637Z,2.75
2022-12-11T11:12:49.031Z,2.87
2022-12-11T11:15:26.340Z,2.77
2022-12-11T11:18:10.001Z,2.74
2022-12-11T11:20:48.378Z,2.83
2022-12-11T11:23:22.267Z,2.90
2022-12-11T11:25:56.680Z,2.67
2022-12-11T11:28:34.367Z,2.89
2022-12-11T11:31:10.464Z,2.82
2022-12-11T11:33:56.548Z,2.68
2022-12-11T11:36:31.735Z,2.88
2022-12-11T11:39:19.004Z,2.63
2022-12-11T11:41:58.964Z,2.85
2022-12-11T11:44:37.109Z,2.88
2022-12-11T11:47:15.633Z,2.68
2022-12-11T11:50:00.308Z,2.88
2022-12-11T11:52:39.485Z,2.88
2022-12-11T11:55:22.029Z,2.80
2022-12-11T11:58:00.852Z,2.88
2022-12-11T12:00:34.205Z,2.70
2022-12-11T12:03:11.658Z,2.60
2022-12-11T12:05:52.348Z,2.87
2022-12-11T12:08:41.790Z,2.68
2022-12-11T12:11:28.345Z,2.86
2022-12-11T12:14:28.738Z,2.86
2022-12-11T12:17:14.430Z,2.77
2022-12-11T12:19:55.343Z,2.81
2022-12-11T12:22:45.604Z,2.73
2022-12-11T12:25:27.191Z,2.84
2022-12-11T12:28:10.820Z,2.73
2022-12-11T12:30:57.523Z,2.88
2022-12-11T12:33:41.372Z,2.84
2022-12-11T12:36:22.030Z,2.86
2022-12-11T12:39:02.439Z,2.81
2022-12-11T12:41:48.116Z,2.60
2022-12-11T12:44:23.599Z,2.64
2022-12-11T12:47:00.562Z,2.77
2022-12-11T12:49:40.362Z,2.87
2022-12-11T12:52:17.155Z,2.84
2022-12-11T12:55:18.936Z,2.84
2022-12-11T12:57:55.392Z,2.85
2022-12-11T13:00:34.372Z,2.84
2022-12-11T13:03:14.374Z,2.76
2022-12-11T13:05:58.348Z,2.75
2022-12-11T13:08:37.952Z,2.83
2022-12-11T13:11:15.406Z,2.82
2022-12-11T13:14:03.965Z,2.82
2022-12-11T13:16:38.913Z,2.59
2022-12-11T13:19:27.426Z,2.81
2022-12-11T13:22:04.935Z,2.53
2022-12-11T13:24:46.727Z,2.80
2022-12-11T13:27:27.504Z,2.79
2022-12-11T13:30:07.158Z,2.54
2022-12-11T13:32:41.597Z,2.75
2022-12-11T13:35:17.773Z,2.49
2022-12-11T13:37:52.293Z,2.79
2022-12-11T13:40:28.056Z,2.73
2022-12-11T13:43:06.152Z,2.81
2022-12-11T13:45:46.753Z,2.60
2022-12-11T13:48:23.585Z,2.82
2022-12-11T13:50:58.495Z,2.79
2022-12-11T13:53:31.124Z,2.79
2022-12-11T13:56:05.953Z,2.88
2022-12-11T13:58:40.204Z,2.80
2022-12-11T14:01:16.271Z,2.82
2022-12-11T14:03:53.909Z,2.68
2022-12-11T14:06:28.635Z,2.63
2022-12-11T14:09:03.012Z,2.79
2022-12-11T14:11:38.220Z,2.87
2022-12-11T14:14:20.730Z,2.85
2022-12-11T14:16:53.531Z,2.73
2022-12-11T14:19:26.233Z,2.93
2022-12-11T14:22:01.349Z,2.79
2022-12-11T14:24:34.181Z,2.93
2022-12-11T14:27:16.208Z,2.90
2022-12-11T14:29:51.307Z,2.88
2022-12-11T14:32:32.186Z,2.86
2022-12-11T14:35:06.908Z,2.71
2022-12-11T14:37:40.126Z,2.70
2022-12-11T14:40:18.859Z,2.98
2022-12-11T14:43:00.019Z,2.98
2022-12-11T14:45:36.857Z,2.95
2022-12-11T14:48:15.108Z,2.86
2022-12-11T14:50:50.382Z,2.92
2022-12-11T14:53:27.420Z,2.85
2022-12-11T14:56:05.460Z,3.06
2022-12-11T14:58:43.687Z,3.01
2022-12-11T15:01:26.039Z,2.86
2022-12-11T15:04:16.723Z,2.89
2022-12-11T15:06:51.684Z,3.11
2022-12-11T15:09:28.598Z,2.90
2022-12-11T15:12:10.579Z,3.12
2022-12-11T15:14:48.846Z,3.11
2022-12-11T15:17:24.210Z,3.12
2022-12-11T15:20:02.896Z,2.84
2022-12-11T15:22:36.336Z,3.11
2022-12-11T15:25:19.677Z,2.85
2022-12-11T15:27:54.276Z,3.13
2022-12-11T15:30:29.260Z,3.11
2022-12-11T15:33:05.048Z,3.15
2022-12-11T15:35:38.833Z,3.15
2022-12-11T15:38:30.313Z,3.23
2022-12-11T15:41:03.646Z,3.03
2022-12-11T15:43:37.905Z,3.23
2022-12-11T15:46:10.707Z,3.02
2022-12-11T15:48:44.643Z,3.21
2022-12-11T15:51:17.521Z,3.00
2022-12-11T15:53:50.355Z,3.28
2022-12-11T15:56:23.040Z,3.29
2022-12-11T15:59:02.587Z,3.23
2022-12-11T16:01:35.167Z,2.97
2022-12-11T16:04:09.161Z,3.30
2022-12-11T16:06:45.389Z,3.24
2022-12-11T16:09:17.773Z,3.03
2022-12-11T16:11:50.272Z,3.33
2022-12-11T16:14:22.736Z,3.09
2022-12-11T16:16:55.268Z,3.35
2022-12-11T16:19:29.212Z,3.35
2022-12-11T16:22:01.907Z,3.27
2022-12-11T16:24:34.300Z,3.29
2022-12-11T16:27:09.602Z,3.26
2022-12-11T16:29:45.117Z,3.39
2022-12-11T16:32:18.793Z,3.41
2022-12-11T16:34:52.773Z,3.22
2022-12-11T16:37:25.454Z,3.39
2022-12-11T16:39:57.845Z,3.09
2022-12-11T16:42:30.334Z,3.45
2022-12-11T16:45:09.239Z,3.48
2022-12-11T16:47:42.256Z,3.49
2022-12-11T16:50:17.533Z,3.35
2022-12-11T16:52:50.452Z,3.42
2022-12-11T16:55:22.909Z,3.45
2022-12-11T16:57:55.691Z,3.32
2022-12-11T17:00:28.288Z,3.45
2022-12-11T17:03:01.636Z,3.53
2022-12-11T17:05:40.021Z,3.38
2022-12-11T17:08:13.330Z,3.55
2022-12-11T17:10:47.033Z,3.56
2022-12-11T17:13:19.618Z,3.56
2022-12-11T17:15:52.160Z,3.43
2022-12-11T17:18:24.900Z,3.24
2022-12-11T17:21:00.620Z,3.42
2022-12-11T17:23:33.593Z,3.32
2022-12-11T17:26:08.942Z,3.66
2022-12-11T17:28:41.824Z,3.59
2022-12-11T17:31:16.682Z,3.50
2022-12-11T17:33:49.795Z,3.45
2022-12-11T17:36:23.781Z,3.70
2022-12-11T17:38:56.557Z,3.63
2022-12-11T17:41:29.115Z,3.72
2022-12-11T17:44:01.568Z,3.65
2022-12-11T17:46:34.056Z,3.71
2022-12-11T17:49:06.658Z,3.73
2022-12-11T17:51:40.470Z,3.71
2022-12-11T17:54:13.046Z,3.46
2022-12-11T17:56:45.589Z,3.80
2022-12-11T17:59:21.033Z,3.78
2022-12-11T18:01:53.556Z,3.79
2022-12-11T18:04:26.128Z,3.82
2022-12-11T18:07:00.404Z,3.82
2022-12-11T18:09:34.437Z,3.78
2022-12-11T18:12:07.376Z,3.83
2022-12-11T18:14:45.775Z,3.81
2022-12-11T18:17:18.359Z,3.59
2022-12-11T18:19:51.105Z,3.73
2022-12-11T18:22:25.559Z,3.88
2022-12-11T18:25:03.922Z,3.73
2022-12-11T18:27:40.382Z,3.91
2022-12-11T18:30:14.426Z,3.84
2022-12-11T18:32:47.026Z,3.94
2022-12-11T18:35:19.684Z,3.83
2022-12-11T18:37:53.633Z,3.88
2022-12-11T18:40:26.296Z,3.98
2022-12-11T18:42:58.947Z,3.92
2022-12-11T18:45:31.565Z,3.97
2022-12-11T18:48:04.383Z,4.02
2022-12-11T18:50:37.291Z,3.73
2022-12-11T18:53:11.940Z,4.00
2022-12-11T18:55:45.839Z,3.98
2022-12-11T18:58:19.368Z,4.12
2022-12-11T19:00:52.234Z,3.90
2022-12-11T19:03:25.006Z,4.01
2022-12-11T19:05:57.572Z,4.17
2022-12-11T19:08:33.572Z,4.19
2022-12-11T19:11:07.006Z,4.17
2022-12-11T19:13:39.568Z,4.13
2022-12-11T19:16:16.912Z,4.23
2022-12-11T19:18:50.583Z,4.24
2022-12-11T19:21:23.385Z,4.21
2022-12-11T19:23:57.552Z,4.23
2022-12-11T19:26:37.187Z,4.28
2022-12-11T19:29:10.184Z,4.20
2022-12-11T19:31:43.203Z,4.17
2022-12-11T19:34:16.015Z,4.28
2022-12-11T19:36:48.509Z,4.35
2022-12-11T19:39:22.422Z,4.37
2022-12-11T19:41:55.297Z,4.38
2022-12-11T19:44:27.955Z,4.35
2022-12-11T19:47:00.709Z,4.41
2022-12-11T19:49:33.241Z,4.28
2022-12-11T19:52:06.003Z,4.42
2022-12-11T19:54:39.976Z,4.38
2022-12-11T19:57:12.918Z,4.43
2022-12-11T19:59:45.539Z,4.38
2022-12-11T20:02:19.678Z,4.44
2022-12-11T20:04:53.117Z,4.15
2022-12-11T20:07:30.488Z,4.45
2022-12-11T20:10:06.814Z,4.37
2022-12-11T20:12:40.659Z,4.29
2022-12-11T20:15:13.573Z,4.46
2022-12-11T20:17:47.420Z,4.25
2022-12-11T20:20:19.957Z,4.36
2022-12-11T20:22:52.895Z,4.48
2022-12-11T20:25:28.925Z,4.45
2022-12-11T20:28:01.410Z,4.33
2022-12-11T20:30:34.143Z,4.50
2022-12-11T20:33:06.791Z,4.20
2022-12-11T20:35:41.180Z,4.41
2022-12-11T20:38:13.650Z,4.35
2022-12-11T20:40:47.664Z,4.15
2022-12-11T20:43:20.395Z,4.51
2022-12-11T20:45:52.967Z,4.43
2022-12-11T20:48:26.176Z,4.54
2022-12-11T20:51:00.379Z,4.47
2022-12-11T20:53:35.036Z,4.22
2022-12-11T20:56:12.499Z,4.43
2022-12-11T20:58:45.722Z,4.47
2022-12-11T21:01:20.112Z,4.54
2022-12-11T21:03:53.643Z,4.41
2022-12-11T21:06:31.171Z,4.54
2022-12-11T21:09:06.242Z,4.27
2022-12-11T21:11:40.182Z,4.49
2022-12-11T21:14:13.652Z,4.49
2022-12-11T21:16:46.620Z,4.31
2022-12-11T21:19:20.361Z,4.54
2022-12-11T21:21:52.971Z,4.31
2022-12-11T21:24:28.066Z,4.55
2022-12-11T21:27:01.939Z,4.41
2022-12-11T21:29:34.901Z,4.49
2022-12-11T21:32:07.445Z,4.31
2022-12-11T21:34:40.216Z,4.48
2022-12-11T21:37:12.592Z,4.51
2022-12-11T21:39:45.153Z,4.61
2022-12-11T21:42:19.005Z,4.61
2022-12-11T21:47:47.138Z,4.29
2022-12-11T21:50:19.871Z,4.54
2022-12-11T21:52:52.453Z,4.58
2022-12-11T21:55:25.263Z,4.54
2022-12-11T21:57:59.105Z,4.56
2022-12-11T22:00:31.647Z,4.62
2022-12-11T22:03:04.734Z,4.56
2022-12-11T22:05:37.474Z,4.61
2022-12-11T22:08:09.868Z,4.61
2022-12-11T22:10:42.497Z,4.62
2022-12-11T22:13:16.300Z,4.24
2022-12-11T22:15:49.221Z,4.59
2022-12-11T22:18:21.780Z,4.63
2022-12-11T22:20:54.758Z,4.61
2022-12-11T22:23:27.244Z,4.62
2022-12-11T22:26:00.085Z,4.64
2022-12-11T22:28:33.915Z,4.54
2022-12-11T22:31:10.277Z,4.62
2022-12-11T22:33:43.657Z,4.62
2022-12-11T22:36:18.751Z,4.50
2022-12-11T22:38:51.840Z,4.38
2022-12-11T22:41:27.479Z,4.38
2022-12-11T22:44:01.365Z,4.54
2022-12-11T22:46:34.110Z,4.51
2022-12-11T22:49:06.712Z,4.64
2022-12-11T22:51:39.326Z,4.55
2022-12-11T22:54:11.908Z,4.55
2022-12-11T22:56:44.579Z,4.66
2022-12-11T22:59:18.380Z,4.35
2022-12-11T23:01:50.877Z,4.57
2022-12-11T23:04:23.415Z,4.68
2022-12-11T23:06:56.165Z,4.45
2022-12-11T23:09:28.533Z,4.30
2022-12-11T23:12:01.793Z,4.65
2022-12-11T23:14:35.625Z,4.69
2022-12-11T23:17:08.413Z,4.70
2022-12-11T23:19:41.099Z,4.48
2022-12-11T23:22:14.013Z,4.57
2022-12-11T23:24:46.500Z,4.63
2022-12-11T23:27:19.139Z,4.70
2022-12-11T23:29:52.964Z,4.52
2022-12-11T23:32:25.525Z,4.57
2022-12-11T23:34:57.877Z,4.72
2022-12-11T23:37:30.540Z,4.65
2022-12-11T23:40:03.307Z,4.71
2022-12-11T23:42:35.909Z,4.57
2022-12-11T23:45:10.258Z,4.54
2022-12-11T23:47:43.130Z,4.72
2022-12-11T23:50:15.654Z,4.56
2022-12-11T23:52:48.191Z,4.41
2022-12-11T23:55:20.987Z,4.68
2022-12-11T23:57:54.451Z,4.70
